Time;durP1;ratioP1;P1;durP2;ratioP2;P2;SDS_P1;SDS_P2;PMS_P1;PMS_P2;Temp;Humidity;BMP_temperature;BMP_pressure;BME280_temperature;BME280_humidity;BME280_pressure;Samples;Min_cycle;Max_cycle;Signal;HPM_P1;HPM_P2
2022/01/16 00:04:06;;;;;;;63.27;31.13;;;;;;;;;;4996556;28;20244;-71
2022/01/16 00:06:32;;;;;;;65.13;30.00;;;;;;;;;;4982151;28;20203;-70
2022/01/16 00:08:57;;;;;;;77.23;29.70;;;;;;;;;;4996373;28;20174;-70
2022/01/16 00:11:24;;;;;;;90.93;30.83;;;;;;;;;;4994798;28;20537;-70
2022/01/16 00:13:49;;;;;;;67.57;31.47;;;;;;;;;;4992097;28;21158;-70
2022/01/16 00:16:16;;;;;;;67.43;30.43;;;;;;;;;;4996110;28;20190;-70
2022/01/16 00:18:49;;;;;;;65.77;30.20;;;;;;;;;;4997052;28;20557;-70
2022/01/16 00:21:15;;;;;;;88.27;30.03;;;;;;;;;;4989614;28;20199;-70
2022/01/16 00:23:40;;;;;;;90.20;32.07;;;;;;;;;;4991705;28;20171;-69
2022/01/16 00:26:06;;;;;;;72.83;31.60;;;;;;;;;;4989584;28;20510;-68
2022/01/16 00:28:31;;;;;;;75.70;30.43;;;;;;;;;;4992463;28;20727;-70
2022/01/16 00:30:56;;;;;;;99.57;32.40;;;;;;;;;;4990647;28;20193;-70
2022/01/16 00:33:21;;;;;;;64.67;29.87;;;;;;;;;;4980169;28;20680;-70
2022/01/16 00:35:46;;;;;;;71.43;30.53;;;;;;;;;;4989602;28;20186;-69
2022/01/16 00:38:12;;;;;;;63.03;29.53;;;;;;;;;;4993745;28;20264;-68
2022/01/16 00:40:38;;;;;;;89.70;31.10;;;;;;;;;;4989159;28;20179;-68
2022/01/16 00:43:03;;;;;;;70.33;28.33;;;;;;;;;;4991141;28;20706;-69
2022/01/16 00:45:29;;;;;;;62.17;29.30;;;;;;;;;;4980925;28;20178;-69
2022/01/16 00:47:55;;;;;;;59.63;27.67;;;;;;;;;;5017416;23;20241;-71
2022/01/16 00:50:20;;;;;;;69.10;28.03;;;;;;;;;;5010728;28;20205;-69
2022/01/16 00:52:45;;;;;;;87.33;31.23;;;;;;;;;;5008648;28;20636;-70
2022/01/16 00:55:11;;;;;;;69.53;29.07;;;;;;;;;;5009668;28;20256;-71
2022/01/16 00:57:36;;;;;;;67.20;28.67;;;;;;;;;;5009151;28;20260;-70
2022/01/16 01:00:02;;;;;;;63.63;27.87;;;;;;;;;;5010701;28;20599;-73
2022/01/16 01:02:28;;;;;;;68.93;27.97;;;;;;;;;;5008134;28;20317;-72
2022/01/16 01:04:53;;;;;;;57.20;26.50;;;;;;;;;;5010072;28;20186;-70
2022/01/16 01:07:18;;;;;;;64.63;27.97;;;;;;;;;;5009732;28;20644;-70
2022/01/16 01:09:44;;;;;;;54.47;26.70;;;;;;;;;;5011324;28;20277;-70
2022/01/16 01:12:10;;;;;;;72.43;29.27;;;;;;;;;;5009403;28;20179;-70
2022/01/16 01:14:42;;;;;;;70.57;31.10;;;;;;;;;;5002952;28;20183;-70
2022/01/16 01:17:09;;;;;;;69.53;30.23;;;;;;;;;;5009265;28;20182;-70
2022/01/16 01:19:35;;;;;;;66.37;28.17;;;;;;;;;;5007856;28;20183;-69
2022/01/16 01:22:01;;;;;;;60.03;28.73;;;;;;;;;;5006494;28;20242;-70
2022/01/16 01:24:27;;;;;;;67.90;28.77;;;;;;;;;;5007234;28;20812;-70
2022/01/16 01:27:07;;;;;;;65.10;30.60;;;;;;;;;;5008034;28;20182;-72
2022/01/16 01:29:32;;;;;;;68.80;28.83;;;;;;;;;;5008940;28;20189;-71
2022/01/16 01:31:58;;;;;;;74.17;31.33;;;;;;;;;;5008836;28;20649;-70
2022/01/16 01:34:23;;;;;;;71.50;30.60;;;;;;;;;;5007271;28;20210;-70
2022/01/16 01:36:49;;;;;;;64.47;29.80;;;;;;;;;;5004819;28;20193;-70
2022/01/16 01:39:18;;;;;;;89.90;31.27;;;;;;;;;;5007131;28;20199;-70
2022/01/16 01:41:44;;;;;;;80.03;31.17;;;;;;;;;;5005888;28;20229;-70
2022/01/16 01:52:21;;;;;;;75.07;29.40;;;;;;;;;;5007831;28;20244;-70
2022/01/16 01:54:46;;;;;;;81.10;31.13;;;;;;;;;;5006740;28;20190;-70
2022/01/16 01:57:12;;;;;;;86.43;33.43;;;;;;;;;;5006226;28;20198;-70
2022/01/16 01:59:39;;;;;;;81.97;32.53;;;;;;;;;;5005146;28;20194;-70
2022/01/16 02:02:05;;;;;;;94.23;32.27;;;;;;;;;;5007180;28;20202;-70
2022/01/16 02:04:30;;;;;;;84.57;33.73;;;;;;;;;;5005416;28;20578;-70
2022/01/16 02:06:55;;;;;;;94.50;32.80;;;;;;;;;;5007644;28;20225;-70
2022/01/16 02:09:20;;;;;;;83.53;30.03;;;;;;;;;;5006494;28;20217;-70
2022/01/16 02:11:46;;;;;;;86.27;33.07;;;;;;;;;;5007154;28;20186;-70
2022/01/16 02:14:34;;;;;;;100.27;36.37;;;;;;;;;;5007478;28;20182;-69
2022/01/16 02:30:58;;;;;;;117.90;36.10;;;;;;;;;;5006131;28;20175;-70
2022/01/16 02:36:01;;;;;;;112.63;37.10;;;;;;;;;;5007958;28;20781;-70
2022/01/16 02:38:26;;;;;;;140.17;35.60;;;;;;;;;;5005674;28;20233;-71
2022/01/16 02:40:54;;;;;;;115.10;36.23;;;;;;;;;;5004171;28;20175;-70
2022/01/16 02:43:28;;;;;;;117.30;37.93;;;;;;;;;;5006104;28;20182;-69
2022/01/16 02:46:09;;;;;;;156.10;39.80;;;;;;;;;;5005526;28;20278;-71
2022/01/16 02:48:34;;;;;;;141.00;37.10;;;;;;;;;;5007359;28;20244;-69
2022/01/16 02:50:59;;;;;;;141.77;39.90;;;;;;;;;;5014054;28;20194;-70
2022/01/16 02:53:24;;;;;;;123.47;38.87;;;;;;;;;;5006312;28;20943;-70
2022/01/16 02:55:50;;;;;;;109.03;37.30;;;;;;;;;;5006982;28;20660;-69
2022/01/16 02:58:15;;;;;;;143.93;41.87;;;;;;;;;;5005280;28;20886;-70
2022/01/16 03:00:40;;;;;;;125.10;37.50;;;;;;;;;;5009469;28;20182;-70
2022/01/16 03:03:06;;;;;;;100.40;37.20;;;;;;;;;;5014434;28;20239;-70
2022/01/16 03:05:33;;;;;;;96.47;35.83;;;;;;;;;;5009877;28;20178;-70
2022/01/16 03:07:58;;;;;;;114.23;36.10;;;;;;;;;;5011181;28;20280;-70
2022/01/16 03:12:49;;;;;;;113.60;39.03;;;;;;;;;;5010256;28;20178;-71
2022/01/16 03:15:15;;;;;;;98.90;38.10;;;;;;;;;;5007847;28;20319;-70
2022/01/16 03:21:53;;;;;;;96.93;37.00;;;;;;;;;;5012755;28;20281;-70
2022/01/16 03:23:15;;;;;;;116.73;38.60;;;;;;;;;;5007171;28;20209;-70
2022/01/16 03:25:40;;;;;;;113.83;41.93;;;;;;;;;;5009249;28;20197;-70
2022/01/16 03:28:05;;;;;;;133.13;45.03;;;;;;;;;;5010346;28;20202;-71
2022/01/16 03:30:30;;;;;;;128.43;45.70;;;;;;;;;;5010441;28;20579;-70
2022/01/16 03:32:56;;;;;;;109.40;42.40;;;;;;;;;;5008454;28;20194;-70
2022/01/16 03:35:21;;;;;;;103.23;40.20;;;;;;;;;;5007974;28;20186;-70
2022/01/16 03:37:46;;;;;;;123.17;47.53;;;;;;;;;;5010024;28;20207;-71
2022/01/16 03:40:12;;;;;;;116.57;44.23;;;;;;;;;;5009489;28;21248;-69
2022/01/16 03:42:38;;;;;;;111.03;43.13;;;;;;;;;;5008013;28;20203;-69
2022/01/16 03:45:04;;;;;;;130.80;45.47;;;;;;;;;;5007747;28;20178;-70
2022/01/16 03:47:29;;;;;;;115.00;45.17;;;;;;;;;;5012663;28;20276;-70
2022/01/16 03:49:55;;;;;;;131.43;46.30;;;;;;;;;;5009097;28;20190;-71
2022/01/16 03:52:20;;;;;;;115.73;43.00;;;;;;;;;;5009408;28;20241;-70
2022/01/16 03:54:45;;;;;;;103.53;41.53;;;;;;;;;;5008200;28;20174;-70
2022/01/16 03:57:10;;;;;;;117.40;45.80;;;;;;;;;;5007765;28;20592;-69
2022/01/16 03:59:35;;;;;;;122.00;45.17;;;;;;;;;;5009450;28;20186;-70
2022/01/16 04:02:01;;;;;;;99.93;42.77;;;;;;;;;;5013807;28;20249;-70
2022/01/16 04:04:26;;;;;;;104.90;45.37;;;;;;;;;;5012668;28;20186;-71
2022/01/16 04:06:53;;;;;;;102.03;41.90;;;;;;;;;;5007285;28;21963;-70
2022/01/16 04:09:18;;;;;;;106.30;43.77;;;;;;;;;;5009180;28;20270;-70
2022/01/16 04:11:52;;;;;;;101.37;43.23;;;;;;;;;;5007216;28;20186;-70
2022/01/16 04:14:23;;;;;;;103.13;43.90;;;;;;;;;;5008582;28;20524;-70
2022/01/16 04:16:49;;;;;;;94.97;42.37;;;;;;;;;;5011007;28;20195;-70
2022/01/16 04:19:14;;;;;;;94.53;44.70;;;;;;;;;;5011989;28;20651;-70
2022/01/16 04:21:39;;;;;;;86.07;42.10;;;;;;;;;;5009924;28;20226;-72
2022/01/16 04:24:05;;;;;;;101.10;44.83;;;;;;;;;;5010773;28;20648;-70
2022/01/16 04:26:30;;;;;;;83.50;41.67;;;;;;;;;;5008553;28;20193;-69
2022/01/16 04:28:55;;;;;;;80.40;40.17;;;;;;;;;;5009684;28;20198;-72
2022/01/16 04:31:21;;;;;;;84.77;41.77;;;;;;;;;;5007543;28;20192;-70
2022/01/16 04:33:46;;;;;;;83.57;41.80;;;;;;;;;;5007854;28;20278;-70
2022/01/16 04:36:12;;;;;;;94.27;43.83;;;;;;;;;;5007731;28;20194;-69
2022/01/16 04:38:44;;;;;;;82.83;42.23;;;;;;;;;;5007125;28;20272;-70
2022/01/16 04:43:53;;;;;;;88.53;42.23;;;;;;;;;;5009505;28;20293;-70
2022/01/16 04:46:19;;;;;;;85.80;41.97;;;;;;;;;;5012768;28;20174;-69
2022/01/16 04:48:45;;;;;;;83.00;42.03;;;;;;;;;;5009636;28;20271;-70
2022/01/16 04:51:10;;;;;;;85.10;42.73;;;;;;;;;;5008619;28;20926;-70
2022/01/16 04:53:35;;;;;;;77.63;43.07;;;;;;;;;;5007007;28;20623;-71
2022/01/16 04:56:01;;;;;;;83.37;43.47;;;;;;;;;;5006736;28;20631;-69
2022/01/16 04:58:26;;;;;;;83.23;42.17;;;;;;;;;;5008648;28;20202;-70
2022/01/16 05:00:51;;;;;;;82.57;41.97;;;;;;;;;;5007989;28;20235;-69
2022/01/16 05:03:17;;;;;;;78.60;41.20;;;;;;;;;;5012256;28;20186;-71
2022/01/16 05:05:42;;;;;;;86.60;43.87;;;;;;;;;;5007422;28;20273;-70
2022/01/16 05:08:07;;;;;;;76.23;38.57;;;;;;;;;;5008119;28;20206;-70
2022/01/16 05:10:32;;;;;;;77.17;41.37;;;;;;;;;;5006107;28;20648;-70
2022/01/16 05:13:16;;;;;;;85.03;42.47;;;;;;;;;;5008971;28;20264;-69
2022/01/16 05:18:25;;;;;;;84.77;43.07;;;;;;;;;;5010145;28;20280;-70
2022/01/16 05:20:50;;;;;;;80.17;42.43;;;;;;;;;;5009204;28;20961;-69
2022/01/16 05:23:15;;;;;;;77.63;41.97;;;;;;;;;;5008484;28;20213;-69
2022/01/16 05:25:40;;;;;;;76.33;42.83;;;;;;;;;;5008463;28;20276;-71
2022/01/16 05:28:05;;;;;;;78.13;42.83;;;;;;;;;;5007661;28;20220;-71
2022/01/16 05:30:31;;;;;;;75.73;40.13;;;;;;;;;;5004974;28;20807;-70
2022/01/16 05:32:56;;;;;;;83.50;43.10;;;;;;;;;;5005773;28;20951;-69
2022/01/16 05:35:21;;;;;;;73.17;39.03;;;;;;;;;;5004727;28;20248;-69
2022/01/16 05:37:46;;;;;;;84.03;41.07;;;;;;;;;;5005244;28;20212;-70
2022/01/16 05:40:11;;;;;;;72.47;40.57;;;;;;;;;;5003904;28;20204;-68
2022/01/16 05:42:37;;;;;;;73.73;41.17;;;;;;;;;;5007033;28;20217;-69
2022/01/16 05:45:02;;;;;;;73.23;40.07;;;;;;;;;;5007757;28;20613;-69
2022/01/16 05:47:27;;;;;;;68.27;39.97;;;;;;;;;;5010140;28;20535;-70
2022/01/16 05:49:52;;;;;;;75.23;40.60;;;;;;;;;;5014050;28;20182;-70
2022/01/16 05:52:18;;;;;;;77.07;40.20;;;;;;;;;;5011963;28;20734;-70
2022/01/16 05:54:43;;;;;;;71.37;41.13;;;;;;;;;;5007410;28;20180;-69
2022/01/16 05:57:08;;;;;;;61.93;37.60;;;;;;;;;;5006863;28;20182;-70
2022/01/16 05:59:33;;;;;;;65.23;38.73;;;;;;;;;;5006898;28;21258;-70
2022/01/16 06:01:59;;;;;;;68.90;38.03;;;;;;;;;;5009183;28;20703;-71
2022/01/16 06:04:24;;;;;;;73.03;40.40;;;;;;;;;;5009204;28;20473;-70
2022/01/16 06:06:49;;;;;;;69.47;39.07;;;;;;;;;;5009131;28;20199;-71
2022/01/16 06:09:15;;;;;;;71.90;39.03;;;;;;;;;;5007299;28;20230;-70
2022/01/16 06:11:40;;;;;;;67.13;38.57;;;;;;;;;;5022051;28;20190;-70
2022/01/16 06:14:05;;;;;;;69.73;39.47;;;;;;;;;;5008822;28;20190;-71
2022/01/16 06:16:30;;;;;;;64.90;38.73;;;;;;;;;;5008718;28;20269;-70
2022/01/16 06:18:56;;;;;;;67.20;38.83;;;;;;;;;;5010290;28;20746;-70
2022/01/16 06:21:21;;;;;;;64.23;37.97;;;;;;;;;;5006793;28;20510;-72
2022/01/16 06:23:46;;;;;;;68.03;37.37;;;;;;;;;;5006779;28;20264;-70
2022/01/16 06:26:11;;;;;;;61.90;38.30;;;;;;;;;;5006187;28;20179;-71
2022/01/16 06:28:36;;;;;;;61.30;37.07;;;;;;;;;;5006730;28;20225;-71
2022/01/16 06:31:02;;;;;;;63.70;38.57;;;;;;;;;;5005852;28;20219;-69
2022/01/16 06:33:28;;;;;;;61.73;36.03;;;;;;;;;;5013036;28;20196;-70
2022/01/16 06:35:53;;;;;;;61.20;36.47;;;;;;;;;;5011449;28;20205;-71
2022/01/16 06:38:18;;;;;;;60.57;36.10;;;;;;;;;;5011039;28;20210;-70
2022/01/16 06:40:43;;;;;;;63.03;36.10;;;;;;;;;;5010475;28;20813;-71
2022/01/16 06:43:09;;;;;;;61.87;35.03;;;;;;;;;;5009684;28;20214;-70
2022/01/16 06:45:34;;;;;;;56.90;34.33;;;;;;;;;;5010168;28;20174;-70
2022/01/16 06:47:59;;;;;;;59.23;36.67;;;;;;;;;;5027626;22;20256;-71
2022/01/16 06:50:24;;;;;;;62.53;34.23;;;;;;;;;;5010312;28;20198;-71
2022/01/16 06:52:50;;;;;;;59.83;34.30;;;;;;;;;;5010061;28;20194;-71
2022/01/16 06:55:15;;;;;;;59.17;34.13;;;;;;;;;;5010547;28;20269;-72
2022/01/16 06:57:40;;;;;;;61.03;35.57;;;;;;;;;;5009341;28;20206;-72
2022/01/16 07:00:06;;;;;;;55.97;33.57;;;;;;;;;;5009250;28;20182;-72
2022/01/16 07:02:31;;;;;;;52.97;30.57;;;;;;;;;;5010214;28;20292;-72
2022/01/16 07:04:57;;;;;;;54.77;29.73;;;;;;;;;;5008551;28;20280;-72
2022/01/16 07:07:22;;;;;;;49.00;29.27;;;;;;;;;;5008167;28;20185;-72
2022/01/16 07:09:47;;;;;;;42.60;26.20;;;;;;;;;;4992399;28;20240;-72
2022/01/16 07:12:12;;;;;;;37.93;23.27;;;;;;;;;;5008702;28;20559;-72
2022/01/16 07:14:38;;;;;;;38.53;23.83;;;;;;;;;;5007228;28;20440;-74
2022/01/16 07:17:03;;;;;;;41.57;22.17;;;;;;;;;;5011866;28;20282;-71
2022/01/16 07:19:28;;;;;;;36.63;21.20;;;;;;;;;;5006613;28;20206;-71
2022/01/16 07:21:54;;;;;;;34.80;19.47;;;;;;;;;;5008455;28;20202;-71
2022/01/16 07:24:20;;;;;;;34.77;18.80;;;;;;;;;;4996427;28;20267;-70
2022/01/16 07:26:45;;;;;;;32.83;19.43;;;;;;;;;;5036897;28;20897;-71
2022/01/16 07:29:11;;;;;;;29.40;19.27;;;;;;;;;;5021330;28;20198;-71
2022/01/16 07:31:38;;;;;;;29.10;18.47;;;;;;;;;;5011759;28;20174;-71
2022/01/16 07:34:04;;;;;;;28.93;18.43;;;;;;;;;;5010979;28;20701;-71
2022/01/16 07:36:29;;;;;;;29.37;17.87;;;;;;;;;;5008032;28;20202;-71
2022/01/16 07:38:54;;;;;;;29.27;17.33;;;;;;;;;;5007853;28;20201;-71
2022/01/16 07:41:19;;;;;;;27.30;16.80;;;;;;;;;;5008531;28;20280;-71
2022/01/16 07:43:44;;;;;;;24.57;16.63;;;;;;;;;;5005514;28;20768;-73
2022/01/16 07:46:09;;;;;;;22.10;14.93;;;;;;;;;;4990159;28;20174;-73
2022/01/16 07:48:35;;;;;;;21.33;13.27;;;;;;;;;;5010445;28;20634;-72
2022/01/16 07:51:00;;;;;;;18.90;13.03;;;;;;;;;;5007638;28;20178;-73
2022/01/16 07:53:25;;;;;;;17.47;12.00;;;;;;;;;;5007954;28;20174;-72
2022/01/16 07:55:50;;;;;;;19.03;10.97;;;;;;;;;;5006886;28;20190;-71
2022/01/16 07:58:15;;;;;;;18.73;11.57;;;;;;;;;;5011373;28;20220;-71
2022/01/16 08:00:41;;;;;;;13.60;10.67;;;;;;;;;;5006836;28;20678;-71
2022/01/16 08:03:06;;;;;;;19.33;11.93;;;;;;;;;;5013404;28;20297;-71
2022/01/16 08:05:31;;;;;;;15.33;10.13;;;;;;;;;;5007976;28;20182;-72
2022/01/16 08:07:57;;;;;;;13.33;8.90;;;;;;;;;;4994926;28;20339;-72
2022/01/16 08:10:22;;;;;;;12.73;9.23;;;;;;;;;;5006842;28;20178;-71
2022/01/16 08:12:47;;;;;;;11.83;8.57;;;;;;;;;;5010103;28;20178;-71
2022/01/16 08:15:12;;;;;;;18.63;8.30;;;;;;;;;;5008006;28;20284;-72
2022/01/16 08:17:38;;;;;;;13.60;8.23;;;;;;;;;;5012979;28;20297;-72
2022/01/16 08:20:04;;;;;;;12.03;8.47;;;;;;;;;;5008686;28;20185;-72
2022/01/16 08:22:29;;;;;;;15.87;8.87;;;;;;;;;;5008550;28;20213;-72
2022/01/16 08:24:55;;;;;;;11.27;7.93;;;;;;;;;;5007354;28;20305;-71
2022/01/16 08:27:20;;;;;;;14.90;9.80;;;;;;;;;;5008713;28;20377;-71
2022/01/16 08:29:45;;;;;;;14.80;9.47;;;;;;;;;;5007542;28;21895;-72
2022/01/16 08:32:10;;;;;;;13.47;8.73;;;;;;;;;;5011857;28;20185;-72
2022/01/16 08:34:35;;;;;;;15.00;10.57;;;;;;;;;;5029159;28;20183;-72
2022/01/16 08:37:01;;;;;;;17.50;10.90;;;;;;;;;;5030209;28;20269;-71
2022/01/16 08:39:26;;;;;;;13.30;9.60;;;;;;;;;;5029553;28;20407;-72
2022/01/16 08:41:51;;;;;;;12.97;9.73;;;;;;;;;;5010423;28;20286;-72
2022/01/16 08:44:19;;;;;;;14.40;10.00;;;;;;;;;;5027553;28;20193;-72
2022/01/16 08:46:44;;;;;;;13.73;9.77;;;;;;;;;;5023436;28;20179;-71
2022/01/16 08:49:09;;;;;;;13.70;9.77;;;;;;;;;;5006264;28;20664;-71
2022/01/16 08:51:34;;;;;;;17.37;12.23;;;;;;;;;;5000567;28;20269;-71
2022/01/16 08:53:59;;;;;;;18.20;11.63;;;;;;;;;;5007828;28;20266;-71
2022/01/16 08:56:25;;;;;;;23.40;14.37;;;;;;;;;;5006863;28;20190;-71
2022/01/16 08:58:50;;;;;;;24.30;15.00;;;;;;;;;;4997751;28;20752;-71
2022/01/16 09:01:15;;;;;;;28.43;15.63;;;;;;;;;;4992552;28;20344;-71
2022/01/16 09:03:40;;;;;;;29.60;17.40;;;;;;;;;;5015704;28;20321;-72
2022/01/16 09:06:05;;;;;;;33.97;19.63;;;;;;;;;;5007557;28;20248;-71
2022/01/16 09:08:31;;;;;;;37.40;20.50;;;;;;;;;;5003787;28;20769;-71
2022/01/16 09:10:56;;;;;;;40.30;21.97;;;;;;;;;;5006562;28;20174;-72
2022/01/16 09:13:21;;;;;;;39.33;22.80;;;;;;;;;;5007596;28;20261;-71
2022/01/16 09:15:47;;;;;;;44.27;25.00;;;;;;;;;;5006181;28;20190;-71
2022/01/16 09:18:13;;;;;;;39.27;23.30;;;;;;;;;;5011221;28;20850;-72
2022/01/16 09:20:39;;;;;;;43.93;24.43;;;;;;;;;;5007602;28;20283;-71
2022/01/16 09:23:04;;;;;;;40.87;25.57;;;;;;;;;;5006766;28;20203;-72
2022/01/16 09:25:29;;;;;;;56.40;27.73;;;;;;;;;;4990833;28;20179;-72
2022/01/16 09:27:54;;;;;;;43.67;24.93;;;;;;;;;;5008605;28;20656;-72
2022/01/16 09:30:20;;;;;;;55.07;28.63;;;;;;;;;;5007418;28;20657;-71
2022/01/16 09:32:46;;;;;;;46.20;25.03;;;;;;;;;;5006911;28;20185;-72
2022/01/16 09:35:11;;;;;;;48.73;27.73;;;;;;;;;;5006747;28;20244;-72
2022/01/16 09:37:36;;;;;;;43.40;26.87;;;;;;;;;;4990032;28;20211;-71
2022/01/16 09:40:03;;;;;;;46.53;27.50;;;;;;;;;;5007154;28;20612;-71
2022/01/16 09:42:28;;;;;;;52.53;27.43;;;;;;;;;;4989831;28;20264;-71
2022/01/16 09:44:54;;;;;;;55.77;29.50;;;;;;;;;;5006995;28;21259;-71
2022/01/16 09:47:19;;;;;;;52.67;28.43;;;;;;;;;;5016210;28;20252;-71
2022/01/16 09:49:45;;;;;;;57.33;29.47;;;;;;;;;;5010063;28;20184;-71
2022/01/16 09:52:10;;;;;;;60.37;28.43;;;;;;;;;;5007517;28;20240;-71
2022/01/16 09:54:36;;;;;;;56.70;30.07;;;;;;;;;;5006782;28;20660;-72
2022/01/16 09:57:01;;;;;;;61.37;29.07;;;;;;;;;;5006784;28;20186;-72
2022/01/16 09:59:26;;;;;;;62.00;30.47;;;;;;;;;;5011470;28;20784;-72
2022/01/16 10:01:55;;;;;;;69.53;30.23;;;;;;;;;;5007512;28;20202;-71
2022/01/16 10:04:30;;;;;;;63.10;30.10;;;;;;;;;;5008216;28;20601;-71
2022/01/16 10:06:56;;;;;;;60.50;30.10;;;;;;;;;;5008924;28;20651;-72
2022/01/16 10:09:21;;;;;;;61.67;31.17;;;;;;;;;;5013103;28;20288;-71
2022/01/16 10:11:55;;;;;;;66.03;31.33;;;;;;;;;;5026135;28;20205;-71
2022/01/16 10:14:26;;;;;;;60.90;31.87;;;;;;;;;;5019004;28;20187;-72
2022/01/16 10:16:51;;;;;;;74.83;32.63;;;;;;;;;;5010402;28;20198;-71
2022/01/16 10:19:21;;;;;;;76.87;32.90;;;;;;;;;;5006542;28;20209;-71
2022/01/16 10:21:47;;;;;;;71.00;32.23;;;;;;;;;;5009785;28;20194;-71
2022/01/16 10:24:17;;;;;;;66.43;31.33;;;;;;;;;;4994229;28;20193;-71
2022/01/16 10:26:43;;;;;;;67.20;33.47;;;;;;;;;;5009802;28;20619;-72
2022/01/16 10:29:13;;;;;;;71.53;32.73;;;;;;;;;;5007321;28;20209;-71
2022/01/16 10:31:38;;;;;;;71.73;32.60;;;;;;;;;;5008800;28;20217;-71
2022/01/16 10:34:21;;;;;;;68.83;31.63;;;;;;;;;;5004741;28;20688;-72
2022/01/16 10:36:46;;;;;;;66.53;30.60;;;;;;;;;;5007000;28;20620;-71
2022/01/16 10:39:12;;;;;;;69.23;32.57;;;;;;;;;;4990660;28;20289;-71
2022/01/16 10:41:37;;;;;;;69.53;30.93;;;;;;;;;;4992352;28;20213;-71
2022/01/16 10:44:03;;;;;;;71.10;31.50;;;;;;;;;;5007686;28;20265;-71
2022/01/16 10:46:28;;;;;;;70.97;33.57;;;;;;;;;;5005369;28;20181;-71
2022/01/16 10:49:12;;;;;;;75.33;35.03;;;;;;;;;;5006165;28;20205;-71
2022/01/16 10:51:38;;;;;;;70.73;32.57;;;;;;;;;;5006175;28;20269;-71
2022/01/16 10:54:22;;;;;;;65.87;31.47;;;;;;;;;;5004945;28;20203;-71
2022/01/16 10:56:47;;;;;;;68.67;30.93;;;;;;;;;;5005574;28;20703;-71
2022/01/16 10:59:22;;;;;;;73.13;31.40;;;;;;;;;;5005560;28;20202;-71
2022/01/16 11:02:06;;;;;;;67.93;31.43;;;;;;;;;;5004634;28;20495;-71
2022/01/16 11:04:31;;;;;;;77.03;33.23;;;;;;;;;;5017771;28;20591;-71
2022/01/16 11:07:03;;;;;;;84.10;35.03;;;;;;;;;;5010082;28;20178;-70
2022/01/16 11:09:29;;;;;;;77.40;31.87;;;;;;;;;;5009835;28;20555;-71
2022/01/16 11:11:57;;;;;;;77.60;33.20;;;;;;;;;;5029223;28;20179;-71
2022/01/16 11:14:23;;;;;;;80.37;32.20;;;;;;;;;;5008899;28;20185;-71
2022/01/16 11:16:48;;;;;;;85.40;32.07;;;;;;;;;;5011343;28;20343;-71
2022/01/16 11:19:15;;;;;;;76.83;32.33;;;;;;;;;;5005537;28;20206;-71
2022/01/16 11:21:43;;;;;;;76.70;34.83;;;;;;;;;;5008956;28;20206;-72
2022/01/16 11:24:25;;;;;;;82.40;35.67;;;;;;;;;;5007353;28;20186;-71
2022/01/16 11:26:51;;;;;;;76.77;32.43;;;;;;;;;;5011308;28;20189;-72
2022/01/16 11:29:16;;;;;;;81.30;35.47;;;;;;;;;;5011666;28;20194;-72
2022/01/16 11:31:43;;;;;;;85.47;33.20;;;;;;;;;;5009057;28;20194;-71
2022/01/16 11:34:09;;;;;;;87.13;38.03;;;;;;;;;;5016230;28;20197;-71
2022/01/16 11:36:34;;;;;;;83.27;35.70;;;;;;;;;;5010787;28;20186;-71
2022/01/16 11:39:01;;;;;;;75.97;36.97;;;;;;;;;;5008025;28;20573;-71
2022/01/16 11:41:35;;;;;;;77.70;34.93;;;;;;;;;;5010064;28;20759;-71
2022/01/16 11:44:02;;;;;;;79.73;35.43;;;;;;;;;;5009203;28;20505;-71
2022/01/16 11:46:28;;;;;;;82.80;35.17;;;;;;;;;;5000206;28;20178;-71
2022/01/16 11:49:00;;;;;;;80.63;34.23;;;;;;;;;;4994345;28;20210;-71
2022/01/16 11:51:35;;;;;;;81.20;35.47;;;;;;;;;;5011401;28;20193;-72
2022/01/16 11:54:11;;;;;;;76.43;35.77;;;;;;;;;;4999325;28;20640;-71
2022/01/16 11:56:42;;;;;;;77.60;35.10;;;;;;;;;;5017144;28;20182;-72
2022/01/16 11:59:11;;;;;;;73.20;34.53;;;;;;;;;;5018855;28;20226;-72
2022/01/16 12:01:42;;;;;;;77.60;35.43;;;;;;;;;;5012308;28;20206;-72
2022/01/16 12:04:27;;;;;;;75.20;35.23;;;;;;;;;;5013265;28;20454;-71
2022/01/16 12:06:53;;;;;;;68.80;32.73;;;;;;;;;;5010520;28;20660;-71
2022/01/16 12:09:38;;;;;;;69.03;32.87;;;;;;;;;;5009268;28;20399;-72
2022/01/16 12:12:23;;;;;;;61.97;31.93;;;;;;;;;;5010317;28;20186;-71
2022/01/16 12:14:59;;;;;;;60.00;31.30;;;;;;;;;;5011898;28;20732;-72
2022/01/16 12:17:28;;;;;;;65.80;31.00;;;;;;;;;;4991798;28;20178;-71
2022/01/16 12:19:54;;;;;;;61.40;31.23;;;;;;;;;;5009396;28;20842;-71
2022/01/16 12:22:40;;;;;;;53.20;29.57;;;;;;;;;;5010214;28;20735;-71
2022/01/16 12:25:08;;;;;;;52.40;28.10;;;;;;;;;;5007549;28;20187;-72
2022/01/16 12:27:45;;;;;;;57.13;27.53;;;;;;;;;;5010325;28;20658;-71
2022/01/16 12:30:13;;;;;;;54.50;28.93;;;;;;;;;;5009735;28;20236;-72
2022/01/16 12:32:47;;;;;;;52.70;27.67;;;;;;;;;;5010054;28;20499;-71
2022/01/16 12:35:12;;;;;;;53.03;28.07;;;;;;;;;;5011996;28;20751;-71
2022/01/16 12:37:44;;;;;;;48.03;26.90;;;;;;;;;;5011849;28;20294;-72
2022/01/16 12:40:09;;;;;;;50.00;27.50;;;;;;;;;;5009573;28;20197;-71
2022/01/16 12:42:34;;;;;;;47.70;26.23;;;;;;;;;;5005802;28;20230;-71
2022/01/16 12:44:59;;;;;;;47.77;27.87;;;;;;;;;;5010123;28;20726;-72
2022/01/16 12:47:26;;;;;;;44.83;25.80;;;;;;;;;;5008998;28;20241;-72
2022/01/16 12:49:52;;;;;;;42.40;25.60;;;;;;;;;;5039156;23;20245;-70
2022/01/16 12:52:18;;;;;;;48.70;26.37;;;;;;;;;;5027248;28;20189;-71
2022/01/16 12:54:48;;;;;;;47.77;28.23;;;;;;;;;;5027614;28;20189;-69
2022/01/16 12:57:24;;;;;;;42.67;25.23;;;;;;;;;;5030179;28;20196;-71
2022/01/16 12:59:49;;;;;;;42.57;23.00;;;;;;;;;;5028782;28;20247;-72
2022/01/16 13:02:15;;;;;;;52.67;28.37;;;;;;;;;;5029110;28;20352;-71
2022/01/16 13:04:46;;;;;;;42.30;24.77;;;;;;;;;;5028588;28;21698;-70
2022/01/16 13:07:12;;;;;;;40.93;23.40;;;;;;;;;;5034630;28;20655;-70
2022/01/16 13:09:38;;;;;;;43.27;23.83;;;;;;;;;;5029964;28;20205;-70
2022/01/16 13:12:03;;;;;;;39.13;22.07;;;;;;;;;;5032002;28;20177;-70
2022/01/16 13:14:33;;;;;;;34.77;19.27;;;;;;;;;;5027844;28;20243;-69
2022/01/16 13:17:03;;;;;;;35.50;19.93;;;;;;;;;;5030053;28;20265;-69
2022/01/16 13:22:16;;;;;;;33.27;18.97;;;;;;;;;;5026980;28;21597;-70
2022/01/16 13:24:49;;;;;;;29.50;16.33;;;;;;;;;;5026449;28;20242;-70
2022/01/16 13:27:17;;;;;;;30.37;18.40;;;;;;;;;;5012001;28;20179;-70
2022/01/16 13:29:43;;;;;;;29.37;17.23;;;;;;;;;;5027774;28;20733;-70
2022/01/16 13:32:09;;;;;;;24.00;15.87;;;;;;;;;;5026889;28;20181;-70
2022/01/16 13:34:39;;;;;;;25.70;15.23;;;;;;;;;;5027500;28;20273;-70
2022/01/16 13:37:06;;;;;;;26.10;15.77;;;;;;;;;;5027240;28;20189;-70
2022/01/16 13:39:32;;;;;;;22.97;15.03;;;;;;;;;;5029031;28;20236;-70
2022/01/16 13:42:14;;;;;;;23.13;14.77;;;;;;;;;;5027229;28;20197;-70
2022/01/16 13:44:39;;;;;;;23.47;14.67;;;;;;;;;;5029031;28;20185;-71
2022/01/16 13:47:05;;;;;;;25.27;16.20;;;;;;;;;;5037888;28;20179;-70
2022/01/16 13:49:30;;;;;;;27.27;16.00;;;;;;;;;;5032931;28;20202;-70
2022/01/16 13:51:56;;;;;;;26.20;16.90;;;;;;;;;;5011362;28;20180;-70
2022/01/16 13:54:27;;;;;;;26.87;18.20;;;;;;;;;;5026327;28;20201;-71
2022/01/16 13:56:53;;;;;;;29.53;17.87;;;;;;;;;;5027290;28;20311;-70
2022/01/16 13:59:19;;;;;;;32.97;19.70;;;;;;;;;;5025816;28;20202;-69
2022/01/16 14:01:50;;;;;;;36.80;21.93;;;;;;;;;;5027380;28;20200;-70
2022/01/16 14:04:16;;;;;;;34.43;21.37;;;;;;;;;;5030568;28;20207;-70
2022/01/16 14:06:52;;;;;;;35.47;21.37;;;;;;;;;;5026362;28;20629;-70
2022/01/16 14:09:18;;;;;;;40.33;21.93;;;;;;;;;;5023067;28;20216;-69
2022/01/16 14:11:45;;;;;;;34.17;22.83;;;;;;;;;;5033053;28;20182;-70
2022/01/16 14:14:11;;;;;;;37.07;22.93;;;;;;;;;;5027917;28;20186;-70
2022/01/16 14:16:37;;;;;;;44.77;24.27;;;;;;;;;;5030027;28;20597;-70
2022/01/16 14:24:02;;;;;;;47.77;25.27;;;;;;;;;;5026624;28;20240;-71
2022/01/16 14:26:28;;;;;;;47.27;26.47;;;;;;;;;;5024735;28;20189;-71
2022/01/16 14:28:53;;;;;;;51.50;27.93;;;;;;;;;;5025291;28;20212;-71
2022/01/16 14:31:18;;;;;;;51.67;30.60;;;;;;;;;;5026718;28;20173;-70
2022/01/16 14:33:43;;;;;;;51.23;29.47;;;;;;;;;;5026165;28;20277;-70
2022/01/16 14:36:09;;;;;;;53.77;28.87;;;;;;;;;;5008992;28;20180;-70
2022/01/16 14:38:38;;;;;;;59.23;32.43;;;;;;;;;;5027133;28;20224;-70
2022/01/16 14:41:03;;;;;;;58.60;29.50;;;;;;;;;;5026372;28;20177;-69
2022/01/16 14:43:36;;;;;;;58.77;28.13;;;;;;;;;;5025574;28;20314;-72
2022/01/16 14:46:01;;;;;;;55.23;28.50;;;;;;;;;;5025407;28;20204;-71
2022/01/16 14:48:26;;;;;;;62.83;31.10;;;;;;;;;;5028825;28;20292;-70
2022/01/16 14:50:51;;;;;;;69.03;32.03;;;;;;;;;;5026287;28;20579;-70
2022/01/16 14:53:19;;;;;;;61.63;32.83;;;;;;;;;;5026441;28;20719;-70
2022/01/16 14:55:45;;;;;;;67.73;31.80;;;;;;;;;;5026564;28;20230;-70
2022/01/16 14:58:10;;;;;;;67.57;33.73;;;;;;;;;;5029305;28;20198;-70
2022/01/16 15:00:36;;;;;;;64.17;32.93;;;;;;;;;;5029749;28;20634;-70